(°C)
(°C)
-1°
-1°
SW
W
WSW
WSW
W
W
W
(km/h)
2-3
2-3
2-3
2-3
2-3
2-2
2-3
(mm)
0
0
0
0
0
0
0
(%)
0
0
0
0
0
0
0

Sonnenhöhe

/ 17.7°
sun-icon
UV 1
07:53
16:56
Vollmond (187°)
17:11
08:40

METAR für Innsbruck (LOWI)

Zeit Bedingungen Temperatur/
Taupunkt
Wind Sichtweite Wetter Wolken Druck Änderung Roh
VFR 1°C / -3°C variable 2kt >10km - Clouds and Visibility OK 1037 No Significant change LOWI 180850Z VRB02KT CAVOK 01/M03 Q1037 NOSIG
VFR 0°C / -2°C variable 1kt >10km - Clouds and Visibility OK 1036 No Significant change LOWI 180820Z VRB01KT CAVOK M00/M02 Q1036 NOSIG
VFR -2°C / -4°C variable 2kt >10km - Clouds and Visibility OK 1036 No Significant change LOWI 180750Z VRB02KT CAVOK M02/M04 Q1036 NOSIG
VFR -2°C / -3°C 250º 2kt >10km - Clouds and Visibility OK 1036 No Significant change LOWI 180720Z 25002KT CAVOK M02/M03 Q1036 NOSIG
VFR -1°C / -3°C variable 2kt >10km - Few Clouds 6000ft 1036 No Significant change LOWI 180650Z VRB02KT 9999 FEW060 M01/M03 Q1036 NOSIG
VFR -1°C / -3°C 340º 2kt >10km - Few Clouds 6000ft 1036 No Significant change LOWI 180620Z 34002KT 9999 FEW060 M01/M03 Q1036 NOSIG
VFR -1°C / -3°C variable 2kt >10km - Few Clouds 6000ft 1035 No Significant change LOWI 180550Z VRB02KT 9999 FEW060 M01/M03 Q1035 NOSIG
VFR -1°C / -3°C 240º variable 180º to 260º 3kt >10km - Scattered Clouds 6500ft 1035 No Significant change LOWI 180520Z 24003KT 180V260 9999 SCT065 M01/M03 Q1035 NOSIG
VFR 0°C / -2°C 250º 3kt >10km - Few Clouds 6000ft
Scattered Clouds 10000ft
1035 No Significant change LOWI 180450Z 25003KT 9999 FEW060 SCT100 M00/M02 Q1035 NOSIG
VFR 0°C / -2°C variable 2kt >10km - Few Clouds 6000ft 1035 - LOWI 180420Z AUTO VRB02KT 9999 FEW060 00/M02 Q1035
VFR 1°C / -2°C 200º 2kt >10km - Broken Clouds 6000ft 1034 - LOWI 180350Z AUTO 20002KT 9999 BKN060 01/M02 Q1034
VFR 1°C / -2°C variable 1kt >10km - Overcast 6000ft 1034 - LOWI 180320Z AUTO VRB01KT 9999 OVC060 01/M02 Q1034
VFR 1°C / -2°C variable 2kt >10km - Broken Clouds 6000ft 1034 - LOWI 180250Z AUTO VRB02KT 9999 BKN060 01/M02 Q1034
VFR 2°C / -2°C variable 1kt >10km - Few Clouds 5000ft
Overcast 6000ft
1034 - LOWI 180220Z AUTO VRB01KT 9999 FEW050 OVC060 02/M02 Q1034
VFR 2°C / -2°C variable 2kt >10km - Few Clouds 5000ft
Broken Clouds 6000ft
1034 - LOWI 180150Z AUTO VRB02KT 9999 FEW050 BKN060 02/M02 Q1034
VFR 2°C / -2°C variable 1kt >10km - Few Clouds 5000ft
Broken Clouds 6000ft
1034 - LOWI 180120Z AUTO VRB01KT 9999 FEW050 BKN060 02/M02 Q1034
VFR 2°C / -2°C variable 2kt >10km - Overcast 5000ft 1034 - LOWI 180050Z AUTO VRB02KT 9999 OVC050 02/M02 Q1034
VFR 3°C / -2°C 100º variable 060º to 160º 3kt >10km - Few Clouds 5000ft
Broken Clouds 6000ft
1033 - LOWI 180020Z AUTO 10003KT 060V160 9999 FEW050 BKN060 03/M02 Q1033
VFR 2°C / -2°C variable 2kt >10km - Few Clouds 4800ft
Overcast 6000ft
1033 - LOWI 172350Z AUTO VRB02KT 9999 FEW048 OVC060 02/M02 Q1033
VFR 2°C / -2°C variable 2kt >10km - Few Clouds 5000ft
Broken Clouds 6000ft
1033 - LOWI 172320Z AUTO VRB02KT 9999 FEW050 BKN060 02/M02 Q1033
VFR 2°C / -2°C variable 2kt >10km - Few Clouds 4000ft
Broken Clouds 6000ft
1033 - LOWI 172250Z AUTO VRB02KT 9999 FEW040 BKN060 02/M02 Q1033
VFR 3°C / -2°C variable 2kt >10km - Few Clouds 5000ft
Overcast 6000ft
1033 - LOWI 172220Z AUTO VRB02KT 9999 FEW050 OVC060 03/M02 Q1033
VFR 3°C / -2°C variable 2kt >10km - Few Clouds 5000ft
Broken Clouds 6000ft
1033 No Significant change LOWI 172150Z VRB02KT 9999 FEW050 BKN060 03/M02 Q1033 NOSIG
VFR 3°C / -2°C 70º variable 360º to 130º 4kt >10km - Few Clouds 5000ft
Broken Clouds 6000ft
1033 No Significant change LOWI 172120Z 07004KT 360V130 9999 FEW050 BKN060 03/M02 Q1033 NOSIG

VFR

1°C / -3°C

[Mehr]
Wind variable 2kt
Sichtweite >10km
Wetter -
Wolken Clouds and Visibility OK
Druck 1037
Änderung No Significant change
Roh LOWI 180850Z VRB02KT CAVOK 01/M03 Q1037 NOSIG

VFR

0°C / -2°C

[Mehr]
Wind variable 1kt
Sichtweite >10km
Wetter -
Wolken Clouds and Visibility OK
Druck 1036
Änderung No Significant change
Roh LOWI 180820Z VRB01KT CAVOK M00/M02 Q1036 NOSIG

VFR

-2°C / -4°C

[Mehr]
Wind variable 2kt
Sichtweite >10km
Wetter -
Wolken Clouds and Visibility OK
Druck 1036
Änderung No Significant change
Roh LOWI 180750Z VRB02KT CAVOK M02/M04 Q1036 NOSIG

VFR

-2°C / -3°C

[Mehr]
Wind 250º 2kt
Sichtweite >10km
Wetter -
Wolken Clouds and Visibility OK
Druck 1036
Änderung No Significant change
Roh LOWI 180720Z 25002KT CAVOK M02/M03 Q1036 NOSIG

VFR

-1°C / -3°C

[Mehr]
Wind variable 2kt
Sichtweite >10km
Wetter -
Wolken Few Clouds 6000ft
Druck 1036
Änderung No Significant change
Roh LOWI 180650Z VRB02KT 9999 FEW060 M01/M03 Q1036 NOSIG

VFR

-1°C / -3°C

[Mehr]
Wind 340º 2kt
Sichtweite >10km
Wetter -
Wolken Few Clouds 6000ft
Druck 1036
Änderung No Significant change
Roh LOWI 180620Z 34002KT 9999 FEW060 M01/M03 Q1036 NOSIG

VFR

-1°C / -3°C

[Mehr]
Wind variable 2kt
Sichtweite >10km
Wetter -
Wolken Few Clouds 6000ft
Druck 1035
Änderung No Significant change
Roh LOWI 180550Z VRB02KT 9999 FEW060 M01/M03 Q1035 NOSIG

VFR

-1°C / -3°C

[Mehr]
Wind 240º variable 180º to 260º 3kt
Sichtweite >10km
Wetter -
Wolken Scattered Clouds 6500ft
Druck 1035
Änderung No Significant change
Roh LOWI 180520Z 24003KT 180V260 9999 SCT065 M01/M03 Q1035 NOSIG

VFR

0°C / -2°C

[Mehr]
Wind 250º 3kt
Sichtweite >10km
Wetter -
Wolken Few Clouds 6000ft
Scattered Clouds 10000ft
Druck 1035
Änderung No Significant change
Roh LOWI 180450Z 25003KT 9999 FEW060 SCT100 M00/M02 Q1035 NOSIG

VFR

0°C / -2°C

[Mehr]
Wind variable 2kt
Sichtweite >10km
Wetter -
Wolken Few Clouds 6000ft
Druck 1035
Änderung -
Roh LOWI 180420Z AUTO VRB02KT 9999 FEW060 00/M02 Q1035

VFR

1°C / -2°C

[Mehr]
Wind 200º 2kt
Sichtweite >10km
Wetter -
Wolken Broken Clouds 6000ft
Druck 1034
Änderung -
Roh LOWI 180350Z AUTO 20002KT 9999 BKN060 01/M02 Q1034

VFR

1°C / -2°C

[Mehr]
Wind variable 1kt
Sichtweite >10km
Wetter -
Wolken Overcast 6000ft
Druck 1034
Änderung -
Roh LOWI 180320Z AUTO VRB01KT 9999 OVC060 01/M02 Q1034

VFR

1°C / -2°C

[Mehr]
Wind variable 2kt
Sichtweite >10km
Wetter -
Wolken Broken Clouds 6000ft
Druck 1034
Änderung -
Roh LOWI 180250Z AUTO VRB02KT 9999 BKN060 01/M02 Q1034

VFR

2°C / -2°C

[Mehr]
Wind variable 1kt
Sichtweite >10km
Wetter -
Wolken Few Clouds 5000ft
Overcast 6000ft
Druck 1034
Änderung -
Roh LOWI 180220Z AUTO VRB01KT 9999 FEW050 OVC060 02/M02 Q1034

VFR

2°C / -2°C

[Mehr]
Wind variable 2kt
Sichtweite >10km
Wetter -
Wolken Few Clouds 5000ft
Broken Clouds 6000ft
Druck 1034
Änderung -
Roh LOWI 180150Z AUTO VRB02KT 9999 FEW050 BKN060 02/M02 Q1034

VFR

2°C / -2°C

[Mehr]
Wind variable 1kt
Sichtweite >10km
Wetter -
Wolken Few Clouds 5000ft
Broken Clouds 6000ft
Druck 1034
Änderung -
Roh LOWI 180120Z AUTO VRB01KT 9999 FEW050 BKN060 02/M02 Q1034

VFR

2°C / -2°C

[Mehr]
Wind variable 2kt
Sichtweite >10km
Wetter -
Wolken Overcast 5000ft
Druck 1034
Änderung -
Roh LOWI 180050Z AUTO VRB02KT 9999 OVC050 02/M02 Q1034

VFR

3°C / -2°C

[Mehr]
Wind 100º variable 060º to 160º 3kt
Sichtweite >10km
Wetter -
Wolken Few Clouds 5000ft
Broken Clouds 6000ft
Druck 1033
Änderung -
Roh LOWI 180020Z AUTO 10003KT 060V160 9999 FEW050 BKN060 03/M02 Q1033

VFR

2°C / -2°C

[Mehr]
Wind variable 2kt
Sichtweite >10km
Wetter -
Wolken Few Clouds 4800ft
Overcast 6000ft
Druck 1033
Änderung -
Roh LOWI 172350Z AUTO VRB02KT 9999 FEW048 OVC060 02/M02 Q1033

VFR

2°C / -2°C

[Mehr]
Wind variable 2kt
Sichtweite >10km
Wetter -
Wolken Few Clouds 5000ft
Broken Clouds 6000ft
Druck 1033
Änderung -
Roh LOWI 172320Z AUTO VRB02KT 9999 FEW050 BKN060 02/M02 Q1033

VFR

2°C / -2°C

[Mehr]
Wind variable 2kt
Sichtweite >10km
Wetter -
Wolken Few Clouds 4000ft
Broken Clouds 6000ft
Druck 1033
Änderung -
Roh LOWI 172250Z AUTO VRB02KT 9999 FEW040 BKN060 02/M02 Q1033

VFR

3°C / -2°C

[Mehr]
Wind variable 2kt
Sichtweite >10km
Wetter -
Wolken Few Clouds 5000ft
Overcast 6000ft
Druck 1033
Änderung -
Roh LOWI 172220Z AUTO VRB02KT 9999 FEW050 OVC060 03/M02 Q1033

VFR

3°C / -2°C

[Mehr]
Wind variable 2kt
Sichtweite >10km
Wetter -
Wolken Few Clouds 5000ft
Broken Clouds 6000ft
Druck 1033
Änderung No Significant change
Roh LOWI 172150Z VRB02KT 9999 FEW050 BKN060 03/M02 Q1033 NOSIG

VFR

3°C / -2°C

[Mehr]
Wind 70º variable 360º to 130º 4kt
Sichtweite >10km
Wetter -
Wolken Few Clouds 5000ft
Broken Clouds 6000ft
Druck 1033
Änderung No Significant change
Roh LOWI 172120Z 07004KT 360V130 9999 FEW050 BKN060 03/M02 Q1033 NOSIG

TAF für Innsbruck (LOWI)

From till


Maximum Temperature 5ºC on . Minimum Temperature -4ºC on .
From till Wind variable 2kt. Visibility 10km or more. Scattered Clouds 6000ft.
Becoming from till Wind 90º 7kt. Visibility 10km or more. Scattered Clouds 6000ft.
With 40% probability, Temporarly from till Wind 270º 10kt.
Becoming from till Wind variable 2kt. Visibility 10km or more. Scattered Clouds 6000ft.
With 30% probability, Temporarly from till Visibility 804.670m. patches Fog .

Roh: TAF LOWI 180515Z 1806/1906 VRB02KT 9999 SCT060 TX05/1814Z TNM04/1906Z BECMG 1809/1811 09007KT PROB40 TEMPO 1811/1817 27010KT BECMG 1816/1818 VRB02KT PROB30 TEMPO 1900/1906 0800 BCFG

Radar für Innsbruck

Nieselregen
Leicht
Moderat
Stark
Sehr schwer
Hagel

Die Ortsmarkierung zeigt auf Innsbruck. Diese Animation zeigt das Niederschlagsradar der letzten Stunde, sowie eine 2h Vorhersage. Nieselregen und leichter Schneefall können für das Radar unsichtbar sein. Die Niederschlagsintensität ist farbcodiert von Hellblau bis Orange.
Copyright 2022 Deutscher Wetterdienst / meteoblue.

Aktuelle Satelliten- und Regenbilder für Innsbruck, Österreich

Die Standortmarkierung ist platziert auf Innsbruck. [Mehr]

Das Echtzeit-Satellitenbild kombiniert sichtbares Licht während des Tages mit Infrarotstrahlung während der Nacht. Nachts ist das Bild nicht dunkel, da Infrarotstrahlung Temperaturunterschiede erkennen kann. Leider sind niedrige Wolken und Nebel nur schwer von den Bodentemperaturen zu unterscheiden und können daher nachts fast unsichtbar sein. Meteosat-Satellitenbilder für Europa werden alle 5 Minuten in Echtzeit aktualisiert. Die Bilder GOES-16 / GOES-17 (Nord- und Südamerika) und Himawari (Asien) werden alle 10 Minuten aktualisiert.

Niederschläge werden von Radar und Satelliten berechnet. Nachts sind die Niederschlagsberechnungen durch die Satelliten weniger genau als tagsüber. Orangene Kreuze markieren Stellen, an denen Blitze aufgenommen wurden (über Europa).

Copyright 2022 EUMETSAT / meteoblue. Blitzdaten zur Verfügung gestellt von nowcast.